sensor_id;sensor_type;location;lat;lon;timestamp;temperature;humidity
73572;DHT22;61854;48.510;-2.770;2023-02-12T00:00:35;6.00;97.20
73572;DHT22;61854;48.510;-2.770;2023-02-12T00:03:01;5.90;97.20
73572;DHT22;61854;48.510;-2.770;2023-02-12T00:05:27;5.90;97.30
73572;DHT22;61854;48.510;-2.770;2023-02-12T00:07:53;5.90;97.30
73572;DHT22;61854;48.510;-2.770;2023-02-12T00:10:19;5.90;97.40
73572;DHT22;61854;48.510;-2.770;2023-02-12T00:12:44;5.90;97.40
73572;DHT22;61854;48.510;-2.770;2023-02-12T00:15:10;5.90;97.40
73572;DHT22;61854;48.510;-2.770;2023-02-12T00:17:36;5.90;97.50
73572;DHT22;61854;48.510;-2.770;2023-02-12T00:20:02;5.90;97.40
73572;DHT22;61854;48.510;-2.770;2023-02-12T00:22:28;5.80;97.40
73572;DHT22;61854;48.510;-2.770;2023-02-12T00:24:54;5.80;97.50
73572;DHT22;61854;48.510;-2.770;2023-02-12T00:27:20;5.80;97.60
73572;DHT22;61854;48.510;-2.770;2023-02-12T00:29:45;5.80;97.70
73572;DHT22;61854;48.510;-2.770;2023-02-12T00:32:11;5.70;97.70
73572;DHT22;61854;48.510;-2.770;2023-02-12T00:34:39;5.70;97.70
73572;DHT22;61854;48.510;-2.770;2023-02-12T00:37:05;5.70;97.80
73572;DHT22;61854;48.510;-2.770;2023-02-12T00:39:30;5.70;97.60
73572;DHT22;61854;48.510;-2.770;2023-02-12T00:41:56;5.70;97.50
73572;DHT22;61854;48.510;-2.770;2023-02-12T00:44:22;5.60;97.40
73572;DHT22;61854;48.510;-2.770;2023-02-12T00:46:47;5.60;97.50
73572;DHT22;61854;48.510;-2.770;2023-02-12T00:49:13;5.60;97.70
73572;DHT22;61854;48.510;-2.770;2023-02-12T00:51:39;5.60;97.70
73572;DHT22;61854;48.510;-2.770;2023-02-12T00:54:04;5.60;97.80
73572;DHT22;61854;48.510;-2.770;2023-02-12T00:56:30;5.60;98.00
73572;DHT22;61854;48.510;-2.770;2023-02-12T00:58:56;5.60;97.90
73572;DHT22;61854;48.510;-2.770;2023-02-12T01:01:21;5.60;98.00
73572;DHT22;61854;48.510;-2.770;2023-02-12T01:03:47;5.60;98.10
73572;DHT22;61854;48.510;-2.770;2023-02-12T01:06:13;5.60;98.10
73572;DHT22;61854;48.510;-2.770;2023-02-12T01:08:38;5.50;98.00
73572;DHT22;61854;48.510;-2.770;2023-02-12T01:11:04;5.60;98.00
73572;DHT22;61854;48.510;-2.770;2023-02-12T01:13:32;5.50;97.90
73572;DHT22;61854;48.510;-2.770;2023-02-12T01:16:08;5.50;98.00
73572;DHT22;61854;48.510;-2.770;2023-02-12T01:18:36;5.50;98.10
73572;DHT22;61854;48.510;-2.770;2023-02-12T01:21:12;5.50;98.10
73572;DHT22;61854;48.510;-2.770;2023-02-12T01:23:38;5.50;98.00
73572;DHT22;61854;48.510;-2.770;2023-02-12T01:26:05;5.50;97.90
73572;DHT22;61854;48.510;-2.770;2023-02-12T01:28:32;5.50;97.80
73572;DHT22;61854;48.510;-2.770;2023-02-12T01:30:57;5.50;97.90
73572;DHT22;61854;48.510;-2.770;2023-02-12T01:33:23;5.40;97.80
73572;DHT22;61854;48.510;-2.770;2023-02-12T01:35:49;5.50;97.90
73572;DHT22;61854;48.510;-2.770;2023-02-12T01:38:14;5.50;97.90
73572;DHT22;61854;48.510;-2.770;2023-02-12T01:40:40;5.40;97.90
73572;DHT22;61854;48.510;-2.770;2023-02-12T01:43:08;5.40;97.90
73572;DHT22;61854;48.510;-2.770;2023-02-12T01:48:01;5.40;97.80
73572;DHT22;61854;48.510;-2.770;2023-02-12T01:50:27;5.40;97.70
73572;DHT22;61854;48.510;-2.770;2023-02-12T01:52:54;5.30;97.70
73572;DHT22;61854;48.510;-2.770;2023-02-12T01:55:21;5.30;97.90
73572;DHT22;61854;48.510;-2.770;2023-02-12T01:57:47;5.30;97.80
73572;DHT22;61854;48.510;-2.770;2023-02-12T02:00:16;5.30;97.80
73572;DHT22;61854;48.510;-2.770;2023-02-12T02:02:45;5.30;97.80
73572;DHT22;61854;48.510;-2.770;2023-02-12T02:05:14;5.30;97.80
73572;DHT22;61854;48.510;-2.770;2023-02-12T02:07:43;5.30;97.80
73572;DHT22;61854;48.510;-2.770;2023-02-12T02:10:10;5.30;97.90
73572;DHT22;61854;48.510;-2.770;2023-02-12T02:12:36;5.30;97.80
73572;DHT22;61854;48.510;-2.770;2023-02-12T02:15:20;5.20;97.90
73572;DHT22;61854;48.510;-2.770;2023-02-12T02:31:42;5.20;98.20
73572;DHT22;61854;48.510;-2.770;2023-02-12T02:34:37;5.20;98.00
73572;DHT22;61854;48.510;-2.770;2023-02-12T02:37:25;5.20;98.00
73572;DHT22;61854;48.510;-2.770;2023-02-12T02:39:57;5.20;97.90
73572;DHT22;61854;48.510;-2.770;2023-02-12T02:42:34;5.10;97.30
73572;DHT22;61854;48.510;-2.770;2023-02-12T02:45:15;5.00;97.20
73572;DHT22;61854;48.510;-2.770;2023-02-12T02:47:46;5.00;97.50
73572;DHT22;61854;48.510;-2.770;2023-02-12T02:50:15;5.00;97.50
73572;DHT22;61854;48.510;-2.770;2023-02-12T02:52:53;5.00;97.60
73572;DHT22;61854;48.510;-2.770;2023-02-12T02:55:22;5.00;97.70
73572;DHT22;61854;48.510;-2.770;2023-02-12T02:57:57;5.00;97.90
73572;DHT22;61854;48.510;-2.770;2023-02-12T03:01:06;5.00;98.10
73572;DHT22;61854;48.510;-2.770;2023-02-12T03:03:46;5.00;98.30
73572;DHT22;61854;48.510;-2.770;2023-02-12T03:09:03;4.90;98.40
73572;DHT22;61854;48.510;-2.770;2023-02-12T03:11:32;4.90;98.50
73572;DHT22;61854;48.510;-2.770;2023-02-12T03:14:20;4.90;98.70
73572;DHT22;61854;48.510;-2.770;2023-02-12T03:17:01;4.90;98.80
73572;DHT22;61854;48.510;-2.770;2023-02-12T03:19:42;4.90;98.90
73572;DHT22;61854;48.510;-2.770;2023-02-12T03:22:39;4.90;98.80
73572;DHT22;61854;48.510;-2.770;2023-02-12T03:25:12;4.90;98.80
73572;DHT22;61854;48.510;-2.770;2023-02-12T03:28:13;4.90;98.90
73572;DHT22;61854;48.510;-2.770;2023-02-12T03:30:50;4.90;98.90
73572;DHT22;61854;48.510;-2.770;2023-02-12T03:36:09;4.80;98.80
73572;DHT22;61854;48.510;-2.770;2023-02-12T03:38:40;4.80;98.80
73572;DHT22;61854;48.510;-2.770;2023-02-12T03:41:16;4.80;98.80
73572;DHT22;61854;48.510;-2.770;2023-02-12T03:49:09;4.80;99.10
73572;DHT22;61854;48.510;-2.770;2023-02-12T03:51:42;4.80;99.10
73572;DHT22;61854;48.510;-2.770;2023-02-12T03:54:11;4.80;99.10
73572;DHT22;61854;48.510;-2.770;2023-02-12T03:56:40;4.70;99.20
73572;DHT22;61854;48.510;-2.770;2023-02-12T03:59:07;4.80;99.20
73572;DHT22;61854;48.510;-2.770;2023-02-12T04:01:34;4.80;99.20
73572;DHT22;61854;48.510;-2.770;2023-02-12T04:04:03;4.70;99.30
73572;DHT22;61854;48.510;-2.770;2023-02-12T04:06:30;4.70;99.40
73572;DHT22;61854;48.510;-2.770;2023-02-12T04:09:00;4.80;99.60
73572;DHT22;61854;48.510;-2.770;2023-02-12T04:22:45;5.00;99.90
73572;DHT22;61854;48.510;-2.770;2023-02-12T04:25:44;5.00;99.90
73572;DHT22;61854;48.510;-2.770;2023-02-12T04:36:44;5.20;99.70
73572;DHT22;61854;48.510;-2.770;2023-02-12T04:39:16;5.20;99.80
73572;DHT22;61854;48.510;-2.770;2023-02-12T04:41:42;5.30;99.60
73572;DHT22;61854;48.510;-2.770;2023-02-12T04:44:36;5.30;99.30
73572;DHT22;61854;48.510;-2.770;2023-02-12T04:47:02;5.30;99.30
73572;DHT22;61854;48.510;-2.770;2023-02-12T04:49:28;5.30;99.20
73572;DHT22;61854;48.510;-2.770;2023-02-12T04:51:54;5.30;99.40
73572;DHT22;61854;48.510;-2.770;2023-02-12T04:54:20;5.30;99.30
73572;DHT22;61854;48.510;-2.770;2023-02-12T04:56:47;5.20;99.20
73572;DHT22;61854;48.510;-2.770;2023-02-12T04:59:13;5.20;99.10
73572;DHT22;61854;48.510;-2.770;2023-02-12T05:01:40;5.20;99.50
73572;DHT22;61854;48.510;-2.770;2023-02-12T05:04:06;5.20;99.40
73572;DHT22;61854;48.510;-2.770;2023-02-12T05:06:37;5.30;99.60
73572;DHT22;61854;48.510;-2.770;2023-02-12T05:09:04;5.30;99.70
73572;DHT22;61854;48.510;-2.770;2023-02-12T05:11:30;5.30;99.40
73572;DHT22;61854;48.510;-2.770;2023-02-12T05:13:56;5.30;99.40
73572;DHT22;61854;48.510;-2.770;2023-02-12T05:16:22;5.30;99.30
73572;DHT22;61854;48.510;-2.770;2023-02-12T05:18:48;5.30;99.40
73572;DHT22;61854;48.510;-2.770;2023-02-12T05:21:14;5.20;99.30
73572;DHT22;61854;48.510;-2.770;2023-02-12T05:23:40;5.20;99.50
73572;DHT22;61854;48.510;-2.770;2023-02-12T05:26:17;5.20;99.50
73572;DHT22;61854;48.510;-2.770;2023-02-12T05:28:44;5.20;99.30
73572;DHT22;61854;48.510;-2.770;2023-02-12T05:31:12;5.20;99.40
73572;DHT22;61854;48.510;-2.770;2023-02-12T05:33:41;5.10;99.40
73572;DHT22;61854;48.510;-2.770;2023-02-12T05:36:14;5.10;99.50
73572;DHT22;61854;48.510;-2.770;2023-02-12T05:38:40;5.20;99.60
73572;DHT22;61854;48.510;-2.770;2023-02-12T05:41:14;5.10;99.40
73572;DHT22;61854;48.510;-2.770;2023-02-12T05:43:40;5.10;99.50
73572;DHT22;61854;48.510;-2.770;2023-02-12T05:46:07;5.10;99.70
73572;DHT22;61854;48.510;-2.770;2023-02-12T05:48:33;5.10;99.70
73572;DHT22;61854;48.510;-2.770;2023-02-12T05:51:06;5.00;99.70
73572;DHT22;61854;48.510;-2.770;2023-02-12T05:53:32;5.00;99.50
73572;DHT22;61854;48.510;-2.770;2023-02-12T05:58:34;4.90;99.20
73572;DHT22;61854;48.510;-2.770;2023-02-12T06:01:00;4.90;99.50
73572;DHT22;61854;48.510;-2.770;2023-02-12T06:03:26;4.90;99.60
73572;DHT22;61854;48.510;-2.770;2023-02-12T06:05:52;4.90;99.30
73572;DHT22;61854;48.510;-2.770;2023-02-12T06:08:18;4.80;99.40
73572;DHT22;61854;48.510;-2.770;2023-02-12T06:10:44;4.70;99.30
73572;DHT22;61854;48.510;-2.770;2023-02-12T06:13:10;4.70;99.30
73572;DHT22;61854;48.510;-2.770;2023-02-12T06:15:36;4.70;99.50
73572;DHT22;61854;48.510;-2.770;2023-02-12T06:18:02;4.60;99.50
73572;DHT22;61854;48.510;-2.770;2023-02-12T06:20:27;4.60;99.20
73572;DHT22;61854;48.510;-2.770;2023-02-12T06:22:53;4.50;99.30
73572;DHT22;61854;48.510;-2.770;2023-02-12T06:25:19;4.50;99.70
73572;DHT22;61854;48.510;-2.770;2023-02-12T06:27:45;4.40;99.90
73572;DHT22;61854;48.510;-2.770;2023-02-12T06:30:10;4.50;99.90
73572;DHT22;61854;48.510;-2.770;2023-02-12T06:32:36;4.50;99.90
73572;DHT22;61854;48.510;-2.770;2023-02-12T06:35:02;4.50;99.90
73572;DHT22;61854;48.510;-2.770;2023-02-12T06:37:27;4.50;99.90
73572;DHT22;61854;48.510;-2.770;2023-02-12T06:39:53;4.60;99.90
73572;DHT22;61854;48.510;-2.770;2023-02-12T06:42:19;4.50;99.90
73572;DHT22;61854;48.510;-2.770;2023-02-12T06:44:44;4.50;99.90
73572;DHT22;61854;48.510;-2.770;2023-02-12T06:47:11;4.50;99.90
73572;DHT22;61854;48.510;-2.770;2023-02-12T06:49:36;4.50;99.90
73572;DHT22;61854;48.510;-2.770;2023-02-12T06:52:02;4.50;99.90
73572;DHT22;61854;48.510;-2.770;2023-02-12T06:54:28;4.50;99.90
73572;DHT22;61854;48.510;-2.770;2023-02-12T06:56:53;4.50;99.90
73572;DHT22;61854;48.510;-2.770;2023-02-12T06:59:19;4.50;99.90
73572;DHT22;61854;48.510;-2.770;2023-02-12T07:01:45;4.50;99.90
73572;DHT22;61854;48.510;-2.770;2023-02-12T07:04:11;4.50;99.90
73572;DHT22;61854;48.510;-2.770;2023-02-12T07:06:37;4.50;99.80
73572;DHT22;61854;48.510;-2.770;2023-02-12T07:09:04;4.50;99.70
73572;DHT22;61854;48.510;-2.770;2023-02-12T07:11:33;4.50;99.90
73572;DHT22;61854;48.510;-2.770;2023-02-12T07:13:59;4.40;99.60
73572;DHT22;61854;48.510;-2.770;2023-02-12T07:16:25;4.30;99.50
73572;DHT22;61854;48.510;-2.770;2023-02-12T07:18:50;4.30;99.70
73572;DHT22;61854;48.510;-2.770;2023-02-12T07:21:17;4.20;99.80
73572;DHT22;61854;48.510;-2.770;2023-02-12T07:23:48;4.20;99.90
73572;DHT22;61854;48.510;-2.770;2023-02-12T07:26:14;4.20;99.90
73572;DHT22;61854;48.510;-2.770;2023-02-12T07:28:41;4.20;99.90
73572;DHT22;61854;48.510;-2.770;2023-02-12T07:33:36;4.20;99.90
73572;DHT22;61854;48.510;-2.770;2023-02-12T07:36:11;4.30;99.90
73572;DHT22;61854;48.510;-2.770;2023-02-12T07:38:37;4.30;99.90
73572;DHT22;61854;48.510;-2.770;2023-02-12T07:41:12;4.40;99.90
73572;DHT22;61854;48.510;-2.770;2023-02-12T07:43:39;4.50;99.90
73572;DHT22;61854;48.510;-2.770;2023-02-12T07:46:07;4.50;99.90
73572;DHT22;61854;48.510;-2.770;2023-02-12T07:48:33;4.40;99.90
73572;DHT22;61854;48.510;-2.770;2023-02-12T07:51:10;4.50;99.90
73572;DHT22;61854;48.510;-2.770;2023-02-12T07:53:37;4.50;99.90
73572;DHT22;61854;48.510;-2.770;2023-02-12T07:56:11;4.50;99.90
73572;DHT22;61854;48.510;-2.770;2023-02-12T07:58:37;4.50;99.90
73572;DHT22;61854;48.510;-2.770;2023-02-12T08:01:13;4.60;99.90
73572;DHT22;61854;48.510;-2.770;2023-02-12T08:03:40;4.60;99.90
73572;DHT22;61854;48.510;-2.770;2023-02-12T08:06:10;4.60;99.80
73572;DHT22;61854;48.510;-2.770;2023-02-12T08:08:36;4.50;99.90
73572;DHT22;61854;48.510;-2.770;2023-02-12T08:11:05;4.60;99.90
73572;DHT22;61854;48.510;-2.770;2023-02-12T08:13:33;4.60;99.90
73572;DHT22;61854;48.510;-2.770;2023-02-12T08:16:04;4.60;99.90
73572;DHT22;61854;48.510;-2.770;2023-02-12T08:18:31;4.70;99.90
73572;DHT22;61854;48.510;-2.770;2023-02-12T08:21:05;4.70;99.70
73572;DHT22;61854;48.510;-2.770;2023-02-12T08:23:31;4.60;99.60
73572;DHT22;61854;48.510;-2.770;2023-02-12T08:26:08;4.70;99.90
73572;DHT22;61854;48.510;-2.770;2023-02-12T08:28:36;4.80;99.90
73572;DHT22;61854;48.510;-2.770;2023-02-12T08:31:05;4.80;99.90
73572;DHT22;61854;48.510;-2.770;2023-02-12T08:33:31;4.80;99.60
73572;DHT22;61854;48.510;-2.770;2023-02-12T08:36:08;4.90;99.80
73572;DHT22;61854;48.510;-2.770;2023-02-12T08:38:34;4.90;99.10
73572;DHT22;61854;48.510;-2.770;2023-02-12T08:41:02;4.90;99.30
73572;DHT22;61854;48.510;-2.770;2023-02-12T08:43:29;4.90;99.30
73572;DHT22;61854;48.510;-2.770;2023-02-12T08:45:59;4.90;98.70
73572;DHT22;61854;48.510;-2.770;2023-02-12T08:48:25;4.80;98.40
73572;DHT22;61854;48.510;-2.770;2023-02-12T08:50:50;4.80;98.80
73572;DHT22;61854;48.510;-2.770;2023-02-12T08:53:16;4.80;98.90
73572;DHT22;61854;48.510;-2.770;2023-02-12T08:55:47;4.70;98.90
73572;DHT22;61854;48.510;-2.770;2023-02-12T08:58:14;4.70;99.40
73572;DHT22;61854;48.510;-2.770;2023-02-12T09:00:39;4.80;99.40
73572;DHT22;61854;48.510;-2.770;2023-02-12T09:03:05;4.90;99.30
73572;DHT22;61854;48.510;-2.770;2023-02-12T09:05:30;4.90;99.20
73572;DHT22;61854;48.510;-2.770;2023-02-12T09:07:56;4.90;98.90
73572;DHT22;61854;48.510;-2.770;2023-02-12T09:10:22;4.90;99.10
73572;DHT22;61854;48.510;-2.770;2023-02-12T09:12:47;5.00;98.70
73572;DHT22;61854;48.510;-2.770;2023-02-12T09:15:13;5.00;98.60
73572;DHT22;61854;48.510;-2.770;2023-02-12T09:17:39;5.00;98.80
73572;DHT22;61854;48.510;-2.770;2023-02-12T09:20:07;5.00;98.80
73572;DHT22;61854;48.510;-2.770;2023-02-12T09:22:33;5.00;98.60
73572;DHT22;61854;48.510;-2.770;2023-02-12T09:25:03;5.10;98.30
73572;DHT22;61854;48.510;-2.770;2023-02-12T09:27:29;5.10;98.60
73572;DHT22;61854;48.510;-2.770;2023-02-12T09:29:54;5.20;98.70
73572;DHT22;61854;48.510;-2.770;2023-02-12T09:32:20;5.20;98.20
73572;DHT22;61854;48.510;-2.770;2023-02-12T09:34:45;5.20;97.90
73572;DHT22;61854;48.510;-2.770;2023-02-12T09:37:11;5.20;97.40
73572;DHT22;61854;48.510;-2.770;2023-02-12T09:39:37;5.10;97.20
73572;DHT22;61854;48.510;-2.770;2023-02-12T09:42:16;5.10;97.40
73572;DHT22;61854;48.510;-2.770;2023-02-12T09:50:47;5.00;98.00
73572;DHT22;61854;48.510;-2.770;2023-02-12T09:53:24;5.00;98.20
73572;DHT22;61854;48.510;-2.770;2023-02-12T09:55:52;5.10;98.50
73572;DHT22;61854;48.510;-2.770;2023-02-12T09:58:42;5.30;98.50
73572;DHT22;61854;48.510;-2.770;2023-02-12T10:01:15;5.40;98.30
73572;DHT22;61854;48.510;-2.770;2023-02-12T10:03:42;5.50;97.80
73572;DHT22;61854;48.510;-2.770;2023-02-12T10:06:25;5.60;96.80
73572;DHT22;61854;48.510;-2.770;2023-02-12T10:14:39;5.60;97.00
73572;DHT22;61854;48.510;-2.770;2023-02-12T10:28:00;5.80;96.50
73572;DHT22;61854;48.510;-2.770;2023-02-12T10:30:43;5.90;96.50
73572;DHT22;61854;48.510;-2.770;2023-02-12T10:33:40;6.00;96.10
73572;DHT22;61854;48.510;-2.770;2023-02-12T10:38:46;6.20;95.20
73572;DHT22;61854;48.510;-2.770;2023-02-12T10:41:15;6.10;95.20
73572;DHT22;61854;48.510;-2.770;2023-02-12T10:43:41;6.20;95.80
73572;DHT22;61854;48.510;-2.770;2023-02-12T10:46:15;6.30;95.60
73572;DHT22;61854;48.510;-2.770;2023-02-12T10:48:44;6.40;95.60
73572;DHT22;61854;48.510;-2.770;2023-02-12T10:53:53;6.70;94.20
73572;DHT22;61854;48.510;-2.770;2023-02-12T10:56:21;6.80;94.40
73572;DHT22;61854;48.510;-2.770;2023-02-12T10:58:56;6.90;94.50
73572;DHT22;61854;48.510;-2.770;2023-02-12T11:01:32;7.00;94.10
73572;DHT22;61854;48.510;-2.770;2023-02-12T11:04:16;7.10;93.90
73572;DHT22;61854;48.510;-2.770;2023-02-12T11:06:56;7.10;93.60
73572;DHT22;61854;48.510;-2.770;2023-02-12T11:09:33;7.10;93.70
73572;DHT22;61854;48.510;-2.770;2023-02-12T11:12:01;7.20;93.70
73572;DHT22;61854;48.510;-2.770;2023-02-12T11:14:27;7.30;93.50
73572;DHT22;61854;48.510;-2.770;2023-02-12T11:16:54;7.30;93.30
73572;DHT22;61854;48.510;-2.770;2023-02-12T11:19:29;7.20;93.40
73572;DHT22;61854;48.510;-2.770;2023-02-12T11:22:09;7.20;93.90
73572;DHT22;61854;48.510;-2.770;2023-02-12T11:24:36;7.20;93.90
73572;DHT22;61854;48.510;-2.770;2023-02-12T11:29:41;7.30;93.70
73572;DHT22;61854;48.510;-2.770;2023-02-12T11:32:08;7.30;93.70
73572;DHT22;61854;48.510;-2.770;2023-02-12T11:34:39;7.40;93.80
73572;DHT22;61854;48.510;-2.770;2023-02-12T11:37:17;7.40;93.60
73572;DHT22;61854;48.510;-2.770;2023-02-12T11:39:48;7.40;93.50
73572;DHT22;61854;48.510;-2.770;2023-02-12T11:42:23;7.50;93.50
73572;DHT22;61854;48.510;-2.770;2023-02-12T11:44:53;7.50;93.50
73572;DHT22;61854;48.510;-2.770;2023-02-12T11:47:26;7.60;93.10
73572;DHT22;61854;48.510;-2.770;2023-02-12T11:52:28;7.60;92.60
73572;DHT22;61854;48.510;-2.770;2023-02-12T11:55:02;7.70;92.30
73572;DHT22;61854;48.510;-2.770;2023-02-12T11:57:36;7.70;92.50
73572;DHT22;61854;48.510;-2.770;2023-02-12T12:00:10;7.80;92.40
73572;DHT22;61854;48.510;-2.770;2023-02-12T12:02:38;7.80;92.10
73572;DHT22;61854;48.510;-2.770;2023-02-12T12:05:18;7.90;91.80
73572;DHT22;61854;48.510;-2.770;2023-02-12T12:07:52;7.90;92.00
73572;DHT22;61854;48.510;-2.770;2023-02-12T12:10:34;8.00;91.90
73572;DHT22;61854;48.510;-2.770;2023-02-12T12:13:09;8.10;91.80
73572;DHT22;61854;48.510;-2.770;2023-02-12T12:15:41;8.10;91.80
73572;DHT22;61854;48.510;-2.770;2023-02-12T12:21:33;8.10;91.70
73572;DHT22;61854;48.510;-2.770;2023-02-12T12:26:46;8.30;91.10
73572;DHT22;61854;48.510;-2.770;2023-02-12T12:29:21;8.30;90.90
73572;DHT22;61854;48.510;-2.770;2023-02-12T12:31:52;8.30;90.40
73572;DHT22;61854;48.510;-2.770;2023-02-12T12:34:24;8.30;90.20
73572;DHT22;61854;48.510;-2.770;2023-02-12T12:37:23;8.30;90.10
73572;DHT22;61854;48.510;-2.770;2023-02-12T12:43:11;8.30;90.10
73572;DHT22;61854;48.510;-2.770;2023-02-12T12:56:22;8.50;90.30
73572;DHT22;61854;48.510;-2.770;2023-02-12T13:10:44;8.90;90.40
73572;DHT22;61854;48.510;-2.770;2023-02-12T13:13:33;8.90;90.20
73572;DHT22;61854;48.510;-2.770;2023-02-12T13:21:08;9.10;88.40
73572;DHT22;61854;48.510;-2.770;2023-02-12T13:28:48;9.30;87.40
73572;DHT22;61854;48.510;-2.770;2023-02-12T13:31:21;9.40;87.50
73572;DHT22;61854;48.510;-2.770;2023-02-12T13:33:49;9.40;86.40
73572;DHT22;61854;48.510;-2.770;2023-02-12T13:36:16;9.50;87.10
73572;DHT22;61854;48.510;-2.770;2023-02-12T13:39:11;9.60;86.40
73572;DHT22;61854;48.510;-2.770;2023-02-12T13:41:31;9.50;85.90
73572;DHT22;61854;48.510;-2.770;2023-02-12T13:46:59;9.60;87.00
73572;DHT22;61854;48.510;-2.770;2023-02-12T13:52:48;9.90;85.60
73572;DHT22;61854;48.510;-2.770;2023-02-12T13:55:09;10.10;84.40
73572;DHT22;61854;48.510;-2.770;2023-02-12T13:57:39;10.50;82.40
73572;DHT22;61854;48.510;-2.770;2023-02-12T14:00:05;10.90;82.20
73572;DHT22;61854;48.510;-2.770;2023-02-12T14:02:51;11.40;80.30
73572;DHT22;61854;48.510;-2.770;2023-02-12T14:07:49;12.10;75.90
73572;DHT22;61854;48.510;-2.770;2023-02-12T14:10:28;12.20;75.00
73572;DHT22;61854;48.510;-2.770;2023-02-12T14:15:52;12.60;74.00
73572;DHT22;61854;48.510;-2.770;2023-02-12T14:18:32;12.90;72.80
73572;DHT22;61854;48.510;-2.770;2023-02-12T14:23:45;13.40;70.30
73572;DHT22;61854;48.510;-2.770;2023-02-12T14:26:18;13.50;68.60
73572;DHT22;61854;48.510;-2.770;2023-02-12T14:29:02;13.60;67.60
73572;DHT22;61854;48.510;-2.770;2023-02-12T14:39:04;14.00;67.00
73572;DHT22;61854;48.510;-2.770;2023-02-12T14:41:32;14.20;65.80
73572;DHT22;61854;48.510;-2.770;2023-02-12T14:46:59;14.40;63.60
73572;DHT22;61854;48.510;-2.770;2023-02-12T14:49:48;14.40;63.50
73572;DHT22;61854;48.510;-2.770;2023-02-12T14:52:16;14.60;63.20
73572;DHT22;61854;48.510;-2.770;2023-02-12T14:54:49;14.80;61.30
73572;DHT22;61854;48.510;-2.770;2023-02-12T14:57:39;14.90;60.00
73572;DHT22;61854;48.510;-2.770;2023-02-12T15:02:54;14.80;59.30
73572;DHT22;61854;48.510;-2.770;2023-02-12T15:05:26;14.70;60.50
73572;DHT22;61854;48.510;-2.770;2023-02-12T15:07:57;14.80;59.80
73572;DHT22;61854;48.510;-2.770;2023-02-12T15:10:28;14.80;59.80
73572;DHT22;61854;48.510;-2.770;2023-02-12T15:15:59;14.90;59.10
73572;DHT22;61854;48.510;-2.770;2023-02-12T15:18:34;14.90;59.00
73572;DHT22;61854;48.510;-2.770;2023-02-12T15:21:39;15.10;58.10
73572;DHT22;61854;48.510;-2.770;2023-02-12T15:24:07;15.20;57.20
73572;DHT22;61854;48.510;-2.770;2023-02-12T15:26:39;15.20;56.90
73572;DHT22;61854;48.510;-2.770;2023-02-12T15:29:06;15.20;57.00
73572;DHT22;61854;48.510;-2.770;2023-02-12T15:31:32;15.10;57.40
73572;DHT22;61854;48.510;-2.770;2023-02-12T15:34:02;15.20;57.40
73572;DHT22;61854;48.510;-2.770;2023-02-12T15:36:30;15.40;58.20
73572;DHT22;61854;48.510;-2.770;2023-02-12T15:39:03;15.50;55.90
73572;DHT22;61854;48.510;-2.770;2023-02-12T15:43:58;15.50;56.10
73572;DHT22;61854;48.510;-2.770;2023-02-12T15:46:24;15.40;56.80
73572;DHT22;61854;48.510;-2.770;2023-02-12T15:48:50;15.40;56.30
73572;DHT22;61854;48.510;-2.770;2023-02-12T15:51:29;15.40;56.50
73572;DHT22;61854;48.510;-2.770;2023-02-12T15:53:59;15.40;56.10
73572;DHT22;61854;48.510;-2.770;2023-02-12T15:56:26;15.30;55.50
73572;DHT22;61854;48.510;-2.770;2023-02-12T15:59:00;15.10;56.10
73572;DHT22;61854;48.510;-2.770;2023-02-12T16:01:31;15.00;56.20
73572;DHT22;61854;48.510;-2.770;2023-02-12T16:04:03;14.90;56.80
73572;DHT22;61854;48.510;-2.770;2023-02-12T16:06:34;15.00;56.80
73572;DHT22;61854;48.510;-2.770;2023-02-12T16:11:28;15.20;55.60
73572;DHT22;61854;48.510;-2.770;2023-02-12T16:14:03;15.20;55.20
73572;DHT22;61854;48.510;-2.770;2023-02-12T16:16:45;15.20;55.60
73572;DHT22;61854;48.510;-2.770;2023-02-12T16:21:42;15.50;55.10
73572;DHT22;61854;48.510;-2.770;2023-02-12T16:24:27;15.40;54.90
73572;DHT22;61854;48.510;-2.770;2023-02-12T16:26:55;15.30;55.00
73572;DHT22;61854;48.510;-2.770;2023-02-12T16:29:21;15.20;55.70
73572;DHT22;61854;48.510;-2.770;2023-02-12T16:32:00;15.20;56.00
73572;DHT22;61854;48.510;-2.770;2023-02-12T16:34:36;15.10;56.10
73572;DHT22;61854;48.510;-2.770;2023-02-12T16:37:43;14.90;56.50
73572;DHT22;61854;48.510;-2.770;2023-02-12T16:42:34;14.10;59.10
73572;DHT22;61854;48.510;-2.770;2023-02-12T16:45:00;13.40;61.60
73572;DHT22;61854;48.510;-2.770;2023-02-12T16:47:26;12.70;64.40
73572;DHT22;61854;48.510;-2.770;2023-02-12T16:49:57;12.10;67.40
73572;DHT22;61854;48.510;-2.770;2023-02-12T16:52:38;11.60;70.10
73572;DHT22;61854;48.510;-2.770;2023-02-12T16:55:08;11.30;72.60
73572;DHT22;61854;48.510;-2.770;2023-02-12T16:57:35;11.10;73.90
73572;DHT22;61854;48.510;-2.770;2023-02-12T17:00:03;10.90;74.90
73572;DHT22;61854;48.510;-2.770;2023-02-12T17:02:29;10.70;76.70
73572;DHT22;61854;48.510;-2.770;2023-02-12T17:04:54;10.40;77.60
73572;DHT22;61854;48.510;-2.770;2023-02-12T17:07:25;10.20;79.00
73572;DHT22;61854;48.510;-2.770;2023-02-12T17:09:55;10.00;79.80
73572;DHT22;61854;48.510;-2.770;2023-02-12T17:12:21;9.90;80.60
73572;DHT22;61854;48.510;-2.770;2023-02-12T17:14:47;9.80;81.40
73572;DHT22;61854;48.510;-2.770;2023-02-12T17:17:13;9.70;82.40
73572;DHT22;61854;48.510;-2.770;2023-02-12T17:19:39;9.50;83.30
73572;DHT22;61854;48.510;-2.770;2023-02-12T17:22:06;9.40;83.70
73572;DHT22;61854;48.510;-2.770;2023-02-12T17:24:33;9.30;84.30
73572;DHT22;61854;48.510;-2.770;2023-02-12T17:27:00;9.20;85.10
73572;DHT22;61854;48.510;-2.770;2023-02-12T17:29:27;9.10;85.60
73572;DHT22;61854;48.510;-2.770;2023-02-12T17:31:54;9.10;86.00
73572;DHT22;61854;48.510;-2.770;2023-02-12T17:34:22;9.00;86.70
73572;DHT22;61854;48.510;-2.770;2023-02-12T17:36:48;8.90;87.10
73572;DHT22;61854;48.510;-2.770;2023-02-12T17:39:14;8.80;87.70
73572;DHT22;61854;48.510;-2.770;2023-02-12T17:41:41;8.80;88.20
73572;DHT22;61854;48.510;-2.770;2023-02-12T17:44:08;8.70;88.80
73572;DHT22;61854;48.510;-2.770;2023-02-12T17:46:36;8.60;89.10
73572;DHT22;61854;48.510;-2.770;2023-02-12T17:49:03;8.60;90.00
73572;DHT22;61854;48.510;-2.770;2023-02-12T17:51:29;8.50;90.10
73572;DHT22;61854;48.510;-2.770;2023-02-12T17:53:54;8.50;90.10
73572;DHT22;61854;48.510;-2.770;2023-02-12T17:56:21;8.50;90.20
73572;DHT22;61854;48.510;-2.770;2023-02-12T17:58:51;8.40;90.40
73572;DHT22;61854;48.510;-2.770;2023-02-12T18:01:19;8.40;90.40
73572;DHT22;61854;48.510;-2.770;2023-02-12T18:03:45;8.30;90.60
73572;DHT22;61854;48.510;-2.770;2023-02-12T18:06:12;8.30;90.60
73572;DHT22;61854;48.510;-2.770;2023-02-12T18:08:41;8.20;90.70
73572;DHT22;61854;48.510;-2.770;2023-02-12T18:11:08;8.20;90.80
73572;DHT22;61854;48.510;-2.770;2023-02-12T18:13:35;8.20;90.90
73572;DHT22;61854;48.510;-2.770;2023-02-12T18:16:01;8.10;91.00
73572;DHT22;61854;48.510;-2.770;2023-02-12T18:18:30;8.10;91.20
73572;DHT22;61854;48.510;-2.770;2023-02-12T18:20:55;8.00;91.30
73572;DHT22;61854;48.510;-2.770;2023-02-12T18:23:21;8.10;91.40
73572;DHT22;61854;48.510;-2.770;2023-02-12T18:25:46;8.00;91.50
73572;DHT22;61854;48.510;-2.770;2023-02-12T18:28:12;8.00;91.50
73572;DHT22;61854;48.510;-2.770;2023-02-12T18:30:38;8.00;91.70
73572;DHT22;61854;48.510;-2.770;2023-02-12T18:33:10;7.90;91.80